Time;durP1;ratioP1;P1;durP2;ratioP2;P2;SDS_P1;SDS_P2;PMS_P1;PMS_P2;Temp;Humidity;BMP_temperature;BMP_pressure;BME280_temperature;BME280_humidity;BME280_pressure;Samples;Min_cycle;Max_cycle;Signal;HPM_P1;HPM_P2
2021/08/02 00:01:24;;;;;;;4.97;2.05;;;;;;;24.07;36.98;100639.09;3954301;32;15724620;-69
2021/08/02 00:03:56;;;;;;;7.70;2.27;;;;;;;24.07;36.98;100639.09;4432322;32;20089;-68
2021/08/02 00:06:24;;;;;;;8.50;2.20;;;;;;;23.62;37.54;100640.69;4432670;32;20690;-70
2021/08/02 00:09:07;;;;;;;7.70;2.53;;;;;;;23.60;37.54;100635.50;4430339;32;20080;-68
2021/08/02 00:11:38;;;;;;;4.35;1.80;;;;;;;23.66;37.24;100644.06;4430983;32;20472;-70
2021/08/02 00:14:05;;;;;;;5.35;2.00;;;;;;;23.61;37.53;100644.88;4432785;32;20057;-67
2021/08/02 00:16:32;;;;;;;6.45;2.05;;;;;;;23.70;37.27;100641.69;4429928;32;20144;-69
2021/08/02 00:18:58;;;;;;;6.50;2.08;;;;;;;23.63;37.25;100645.91;4429704;32;20038;-69
2021/08/02 00:21:25;;;;;;;7.60;2.10;;;;;;;23.71;37.20;100646.91;4432170;32;20041;-69
2021/08/02 00:23:50;;;;;;;4.47;2.10;;;;;;;23.66;37.06;100641.19;4431623;32;20072;-69
2021/08/02 00:26:17;;;;;;;6.62;2.20;;;;;;;23.72;36.96;100642.72;4436444;32;20553;-69
2021/08/02 00:28:44;;;;;;;3.85;2.03;;;;;;;23.84;36.92;100646.31;4432720;32;20108;-69
2021/08/02 00:31:11;;;;;;;9.65;2.10;;;;;;;23.95;36.87;100643.38;4433742;32;20427;-69
2021/08/02 00:33:37;;;;;;;3.78;2.00;;;;;;;23.90;36.90;100639.19;4433705;32;20445;-69
2021/08/02 00:36:43;;;;;;;7.47;2.15;;;;;;;23.84;37.05;100646.31;4427924;32;20423;-69
2021/08/02 00:39:48;;;;;;;9.15;2.45;;;;;;;24.03;36.78;100647.25;4431301;32;20133;-69
2021/08/02 00:45:20;;;;;;;9.55;2.45;;;;;;;24.30;36.73;100657.75;3956723;32;15724452;-69
2021/08/02 00:47:49;;;;;;;9.50;2.17;;;;;;;24.30;36.73;100657.75;4434012;32;20357;-69
2021/08/02 00:50:22;;;;;;;3.53;1.98;;;;;;;23.88;37.12;100649.66;4435094;32;20108;-69
2021/08/02 00:55:33;;;;;;;5.62;1.90;;;;;;;24.03;37.33;100648.03;3982858;32;15033561;-69
2021/08/02 00:58:02;;;;;;;5.43;2.30;;;;;;;24.03;37.33;100648.03;4435768;32;20056;-69
2021/08/02 01:00:28;;;;;;;6.28;2.10;;;;;;;23.57;37.89;100648.03;4435618;32;20116;-69
2021/08/02 01:02:55;;;;;;;8.48;2.30;;;;;;;23.40;37.95;100648.13;4438510;32;20069;-69
2021/08/02 01:05:23;;;;;;;7.40;2.50;;;;;;;23.46;38.30;100654.63;4437270;32;20474;-69
2021/08/02 01:08:01;;;;;;;11.38;2.15;;;;;;;23.46;38.33;100648.09;4437492;32;20028;-69
2021/08/02 01:10:31;;;;;;;6.32;2.20;;;;;;;23.46;38.24;100648.09;4435023;32;20037;-69
2021/08/02 01:13:17;;;;;;;4.75;2.15;;;;;;;23.35;38.48;100651.03;4436236;32;20106;-69
2021/08/02 01:15:47;;;;;;;7.05;1.85;;;;;;;23.28;38.86;100645.81;4436957;32;20077;-69
2021/08/02 01:18:14;;;;;;;7.62;2.92;;;;;;;23.21;38.98;100650.00;4434894;32;20068;-69
2021/08/02 01:20:44;;;;;;;5.93;2.17;;;;;;;23.04;39.27;100652.16;4433450;32;20438;-69
2021/08/02 01:23:13;;;;;;;6.68;2.33;;;;;;;23.07;39.49;100653.22;4433828;32;20416;-69
2021/08/02 01:30:53;;;;;;;5.87;2.33;;;;;;;23.22;40.34;100650.78;3980261;32;15025578;-67
2021/08/02 01:33:28;;;;;;;9.52;2.80;;;;;;;23.22;40.34;100650.78;4437891;32;20068;-68
2021/08/02 01:35:56;;;;;;;7.37;2.60;;;;;;;22.81;41.11;100641.28;4435796;32;20072;-68
2021/08/02 01:38:24;;;;;;;4.60;2.45;;;;;;;22.70;41.46;100633.47;4431236;32;20038;-68
2021/08/02 01:40:50;;;;;;;4.93;2.65;;;;;;;22.63;41.78;100641.84;4435070;32;20544;-68
2021/08/02 01:43:15;;;;;;;6.47;2.70;;;;;;;22.42;42.09;100638.44;4436523;32;20431;-68
2021/08/02 01:51:06;;;;;;;8.45;2.80;;;;;;;22.78;42.35;100645.19;3982635;32;15022731;-69
2021/08/02 01:54:07;;;;;;;9.40;3.15;;;;;;;22.78;42.35;100645.19;4434110;32;20333;-69
2021/08/02 01:56:44;;;;;;;9.93;3.00;;;;;;;22.24;43.30;100641.09;4438348;32;20086;-69
2021/08/02 01:59:15;;;;;;;6.50;3.03;;;;;;;22.10;43.66;100636.38;4437034;32;20033;-69
2021/08/02 02:02:01;;;;;;;8.90;2.55;;;;;;;21.82;44.49;100644.97;4438532;32;20059;-69
2021/08/02 02:04:32;;;;;;;7.93;2.58;;;;;;;21.80;44.51;100638.16;4438514;32;20129;-69
2021/08/02 02:07:00;;;;;;;9.65;3.03;;;;;;;21.75;44.50;100636.09;4437312;32;20096;-69
2021/08/02 02:09:28;;;;;;;6.37;2.45;;;;;;;21.72;44.66;100640.72;4436390;32;20041;-69
2021/08/02 02:11:56;;;;;;;7.62;2.72;;;;;;;21.57;44.91;100640.19;4437881;32;20029;-69
2021/08/02 02:14:26;;;;;;;8.15;2.97;;;;;;;21.62;44.90;100648.78;4436343;32;20079;-69
2021/08/02 02:16:53;;;;;;;7.68;3.12;;;;;;;21.47;45.30;100644.56;4437897;32;20464;-69
2021/08/02 02:19:22;;;;;;;6.90;2.92;;;;;;;21.20;45.96;100643.19;4435786;32;20469;-69
2021/08/02 02:21:50;;;;;;;11.38;2.97;;;;;;;21.32;45.58;100649.72;4437329;32;20125;-69
2021/08/02 02:24:17;;;;;;;8.05;3.10;;;;;;;21.23;45.76;100650.75;4437258;32;20426;-69
2021/08/02 02:26:44;;;;;;;5.22;2.80;;;;;;;20.98;45.93;100645.94;4438900;32;20048;-69
2021/08/02 02:29:12;;;;;;;6.00;2.97;;;;;;;20.95;46.07;100649.84;4435487;32;20077;-69
2021/08/02 02:31:41;;;;;;;8.90;2.80;;;;;;;20.92;45.83;100647.97;4436375;32;20524;-69
2021/08/02 02:34:08;;;;;;;7.70;2.47;;;;;;;21.01;45.87;100647.00;4437399;32;20068;-69
2021/08/02 02:36:36;;;;;;;10.00;3.28;;;;;;;21.01;45.66;100644.94;4438974;32;20068;-69
2021/08/02 02:39:05;;;;;;;6.45;2.92;;;;;;;21.10;45.41;100629.59;4432031;32;20232;-69
2021/08/02 02:41:31;;;;;;;6.57;3.35;;;;;;;21.00;45.57;100643.38;4438122;32;20387;-69
2021/08/02 02:43:58;;;;;;;7.93;2.87;;;;;;;20.92;45.64;100652.91;4430512;32;20079;-69
2021/08/02 02:46:25;;;;;;;7.07;3.10;;;;;;;20.81;45.75;100639.34;4437569;32;20713;-69
2021/08/02 02:48:53;;;;;;;7.50;3.10;;;;;;;20.76;46.06;100637.22;4435681;32;20045;-69
2021/08/02 02:51:19;;;;;;;5.57;2.62;;;;;;;21.03;45.60;100644.41;4435636;32;20541;-69
2021/08/02 02:53:46;;;;;;;6.70;3.12;;;;;;;20.92;45.76;100639.38;4436636;32;20146;-69
2021/08/02 02:56:14;;;;;;;6.68;2.62;;;;;;;20.80;45.85;100632.03;4436749;32;20100;-69
2021/08/02 02:58:41;;;;;;;10.00;2.78;;;;;;;20.99;45.74;100638.16;4434891;32;20034;-68
2021/08/02 03:01:08;;;;;;;8.95;3.00;;;;;;;20.76;45.76;100634.38;4431387;32;20054;-68
2021/08/02 03:03:36;;;;;;;6.32;3.40;;;;;;;20.74;46.20;100631.22;4421666;32;20033;-69
2021/08/02 03:06:02;;;;;;;15.05;4.57;;;;;;;20.72;46.43;100633.84;4428282;32;20049;-68
2021/08/02 03:08:28;;;;;;;9.18;3.67;;;;;;;20.57;46.53;100629.56;4423484;32;20122;-69
2021/08/02 03:10:56;;;;;;;9.63;3.42;;;;;;;20.66;46.39;100626.50;4429874;32;20030;-69
2021/08/02 03:13:23;;;;;;;7.18;3.15;;;;;;;20.62;46.42;100629.59;4423880;32;20396;-69
2021/08/02 03:15:49;;;;;;;9.40;2.50;;;;;;;20.48;46.47;100626.91;4427453;32;20089;-68
2021/08/02 03:18:14;;;;;;;9.52;3.47;;;;;;;20.29;46.91;100615.09;4425678;32;20038;-68
2021/08/02 03:20:41;;;;;;;8.15;2.60;;;;;;;20.12;47.27;100619.09;4428258;32;20097;-68
2021/08/02 03:23:16;;;;;;;9.43;2.33;;;;;;;20.19;47.25;100610.84;4427008;32;20072;-68
2021/08/02 03:28:36;;;;;;;4.75;2.58;;;;;;;20.42;47.14;100618.28;3979973;32;15025212;-69
2021/08/02 03:31:04;;;;;;;11.32;2.55;;;;;;;20.42;47.14;100618.28;4433107;32;20506;-69
2021/08/02 03:33:34;;;;;;;6.03;2.45;;;;;;;20.08;47.44;100624.22;4434886;32;20030;-69
2021/08/02 03:36:04;;;;;;;4.97;2.15;;;;;;;19.97;47.58;100627.00;4433601;32;20104;-69
2021/08/02 03:38:30;;;;;;;7.37;2.60;;;;;;;20.01;47.73;100618.97;4433131;32;20067;-69
2021/08/02 03:40:57;;;;;;;7.37;2.37;;;;;;;19.87;47.78;100620.69;4432118;32;20032;-69
2021/08/02 03:43:24;;;;;;;7.65;2.92;;;;;;;19.93;47.85;100623.56;4432737;32;20069;-69
2021/08/02 03:45:51;;;;;;;6.35;2.35;;;;;;;19.76;47.98;100618.50;4436887;32;20049;-69
2021/08/02 03:48:20;;;;;;;8.23;2.78;;;;;;;19.87;47.69;100625.59;4432102;32;20041;-69
2021/08/02 03:50:46;;;;;;;5.15;2.12;;;;;;;19.83;47.66;100623.75;4433856;32;20480;-69
2021/08/02 03:53:13;;;;;;;4.97;2.40;;;;;;;19.82;47.75;100632.81;4432038;32;20123;-69
2021/08/02 03:55:39;;;;;;;12.27;2.72;;;;;;;19.69;47.94;100630.37;4433813;32;20057;-69
2021/08/02 03:58:06;;;;;;;7.70;2.65;;;;;;;19.72;47.94;100628.56;4435574;32;20785;-69
2021/08/02 04:00:33;;;;;;;5.78;2.58;;;;;;;19.84;47.87;100630.25;4431596;32;20088;-69
2021/08/02 04:02:58;;;;;;;7.47;2.80;;;;;;;19.74;47.81;100623.94;4435335;32;20052;-69
2021/08/02 04:05:25;;;;;;;7.22;3.00;;;;;;;19.71;47.97;100621.31;4431014;32;20439;-69
2021/08/02 04:07:50;;;;;;;6.78;2.75;;;;;;;19.74;48.02;100623.94;4428608;32;20037;-69
2021/08/02 04:10:16;;;;;;;5.82;2.65;;;;;;;19.55;48.56;100619.84;4431161;32;20032;-69
2021/08/02 04:12:42;;;;;;;7.03;3.17;;;;;;;19.60;48.41;100621.97;4434018;32;20145;-69
2021/08/02 04:15:10;;;;;;;6.85;3.20;;;;;;;19.62;48.10;100630.03;4435740;32;20073;-69
2021/08/02 04:17:36;;;;;;;7.10;2.80;;;;;;;19.77;47.97;100633.56;4432583;32;20038;-69
2021/08/02 04:20:05;;;;;;;9.18;3.55;;;;;;;19.65;47.95;100629.03;4432984;32;20026;-69
2021/08/02 04:22:31;;;;;;;7.12;2.97;;;;;;;19.98;47.17;100628.56;4431137;32;20064;-69
2021/08/02 04:24:56;;;;;;;8.02;2.90;;;;;;;19.79;47.53;100636.72;4436098;32;20034;-69
2021/08/02 04:27:22;;;;;;;5.12;2.95;;;;;;;19.70;47.72;100636.87;4434147;32;20059;-69
2021/08/02 04:29:47;;;;;;;5.43;3.08;;;;;;;19.65;47.87;100638.41;4432170;32;20074;-69
2021/08/02 04:32:13;;;;;;;6.47;2.87;;;;;;;19.79;47.48;100636.72;4434171;32;20030;-69
2021/08/02 04:34:39;;;;;;;6.35;2.33;;;;;;;19.74;47.62;100632.53;4433360;32;20060;-69
2021/08/02 04:37:05;;;;;;;7.15;2.75;;;;;;;19.83;47.41;100634.41;4433088;32;20046;-69
2021/08/02 04:39:31;;;;;;;9.55;2.80;;;;;;;19.84;47.29;100641.69;4422933;32;20391;-69
2021/08/02 04:41:56;;;;;;;5.30;2.75;;;;;;;19.87;47.29;100642.72;4420637;32;20246;-69
2021/08/02 04:44:22;;;;;;;12.32;3.85;;;;;;;19.97;46.77;100647.78;4420671;32;20342;-69
2021/08/02 04:46:48;;;;;;;7.47;2.62;;;;;;;19.97;46.66;100642.06;4420593;32;20034;-69
2021/08/02 04:49:13;;;;;;;9.63;3.45;;;;;;;20.02;46.51;100647.03;4420523;32;20033;-69
2021/08/02 04:51:39;;;;;;;6.68;2.67;;;;;;;20.04;46.56;100638.75;4421637;32;20056;-69
2021/08/02 04:54:05;;;;;;;5.28;2.75;;;;;;;20.02;46.67;100637.69;4422389;32;20042;-69
2021/08/02 04:56:31;;;;;;;5.70;2.90;;;;;;;20.07;46.55;100636.97;4423148;32;20391;-69
2021/08/02 04:58:56;;;;;;;7.10;3.10;;;;;;;20.08;46.52;100636.44;4418899;32;20056;-69
2021/08/02 05:01:22;;;;;;;6.82;2.87;;;;;;;20.01;46.33;100634.06;4424263;32;20121;-69
2021/08/02 05:03:48;;;;;;;4.62;2.67;;;;;;;20.02;46.46;100641.34;4422380;32;20042;-69
2021/08/02 05:06:14;;;;;;;8.00;2.62;;;;;;;20.03;46.39;100645.75;4422943;32;20144;-69
2021/08/02 05:08:40;;;;;;;6.53;3.15;;;;;;;20.10;46.40;100642.44;4418854;32;20087;-69
2021/08/02 05:11:05;;;;;;;10.32;3.33;;;;;;;20.18;46.33;100642.78;4422187;32;20062;-69
2021/08/02 05:13:31;;;;;;;11.07;3.03;;;;;;;20.29;46.03;100642.88;4425730;32;20079;-68
2021/08/02 05:15:56;;;;;;;8.57;2.62;;;;;;;20.24;45.83;100646.47;4422220;32;20061;-68
2021/08/02 05:18:22;;;;;;;6.68;2.78;;;;;;;20.34;45.77;100642.91;4418064;32;20033;-68
2021/08/02 05:20:48;;;;;;;10.07;3.08;;;;;;;20.48;45.41;100642.00;4421213;32;20041;-68
2021/08/02 05:23:13;;;;;;;6.20;2.80;;;;;;;20.39;45.51;100653.63;4423211;32;20022;-68
2021/08/02 05:25:39;;;;;;;10.07;2.72;;;;;;;20.73;44.68;100649.69;4421284;32;20064;-68
2021/08/02 05:28:05;;;;;;;6.80;2.80;;;;;;;20.86;44.37;100647.16;4421949;32;20084;-68
2021/08/02 05:30:30;;;;;;;14.95;2.80;;;;;;;20.77;44.68;100646.59;4418989;32;20087;-68
2021/08/02 05:32:56;;;;;;;8.73;2.70;;;;;;;20.90;44.35;100649.78;4422843;32;20310;-68
2021/08/02 05:35:22;;;;;;;5.87;2.42;;;;;;;20.92;43.93;100653.69;4426468;32;20096;-68
2021/08/02 05:37:48;;;;;;;7.00;2.35;;;;;;;21.16;43.84;100645.53;4418775;32;20077;-69
2021/08/02 05:40:13;;;;;;;8.13;3.10;;;;;;;21.14;43.72;100644.47;4420643;32;20159;-68
2021/08/02 05:42:39;;;;;;;8.68;2.80;;;;;;;21.25;43.49;100648.16;4421916;32;20045;-69
2021/08/02 05:45:07;;;;;;;8.43;3.12;;;;;;;21.33;43.30;100645.59;4424509;32;20435;-69
2021/08/02 05:47:33;;;;;;;8.23;2.75;;;;;;;21.52;43.23;100643.81;4418013;32;20137;-69
2021/08/02 05:49:59;;;;;;;11.32;3.40;;;;;;;21.46;43.16;100640.94;4417117;32;20443;-69
2021/08/02 05:52:25;;;;;;;8.60;2.97;;;;;;;21.55;43.13;100639.94;4419033;32;20069;-69
2021/08/02 05:54:51;;;;;;;4.90;2.58;;;;;;;21.58;42.76;100644.63;4417464;32;20033;-69
2021/08/02 05:57:21;;;;;;;6.32;2.83;;;;;;;21.51;42.98;100642.25;4420253;32;20198;-69
2021/08/02 05:59:47;;;;;;;8.55;3.00;;;;;;;21.86;42.49;100638.97;4424052;32;20415;-69
2021/08/02 06:02:13;;;;;;;9.15;3.15;;;;;;;21.86;42.61;100633.22;4421433;32;20038;-69
2021/08/02 06:04:38;;;;;;;5.53;2.90;;;;;;;21.72;42.70;100637.09;4423868;32;20056;-68
2021/08/02 06:07:04;;;;;;;9.00;2.95;;;;;;;21.90;42.47;100631.66;4422063;32;20067;-69
2021/08/02 06:09:29;;;;;;;8.77;3.25;;;;;;;21.87;42.42;100634.81;4417575;32;20071;-69
2021/08/02 06:11:55;;;;;;;8.93;3.30;;;;;;;22.01;42.28;100630.91;4421249;32;20122;-69
2021/08/02 06:14:21;;;;;;;11.30;3.12;;;;;;;21.99;42.15;100628.56;4420318;32;20259;-69
2021/08/02 06:16:46;;;;;;;8.07;3.42;;;;;;;22.10;42.13;100627.78;4423264;32;20100;-69
2021/08/02 06:19:12;;;;;;;12.70;3.75;;;;;;;22.45;41.82;100628.00;4415385;32;20136;-69
2021/08/02 06:21:38;;;;;;;5.68;3.05;;;;;;;22.74;41.21;100633.97;4421623;32;20309;-69
2021/08/02 06:24:04;;;;;;;11.15;3.80;;;;;;;23.02;40.99;100631.03;4419460;32;20474;-69
2021/08/02 06:26:31;;;;;;;7.18;3.40;;;;;;;23.29;40.45;100641.66;4419039;32;20119;-69
2021/08/02 06:28:57;;;;;;;10.00;3.35;;;;;;;23.42;40.18;100628.28;4418387;32;20510;-69
2021/08/02 06:31:23;;;;;;;7.62;3.33;;;;;;;23.48;40.29;100634.75;4421398;32;20065;-69
2021/08/02 06:33:48;;;;;;;6.40;3.30;;;;;;;23.76;39.93;100637.47;4419552;32;20108;-69
2021/08/02 06:36:17;;;;;;;10.93;3.87;;;;;;;23.79;39.86;100630.66;4417124;32;20050;-68
2021/08/02 06:38:44;;;;;;;16.65;4.60;;;;;;;24.24;39.24;100639.75;4419673;32;20061;-68
2021/08/02 06:41:09;;;;;;;11.43;3.10;;;;;;;24.09;39.70;100640.13;4420581;32;20524;-68
2021/08/02 06:43:35;;;;;;;8.02;3.30;;;;;;;24.41;39.07;100638.28;4418658;32;20154;-68
2021/08/02 06:46:01;;;;;;;13.65;3.40;;;;;;;24.61;38.63;100651.44;4417471;32;20064;-68
2021/08/02 06:48:27;;;;;;;6.70;3.00;;;;;;;24.83;38.35;100645.47;4420518;32;20126;-69
2021/08/02 06:50:54;;;;;;;16.37;4.10;;;;;;;24.95;37.82;100641.91;4417178;32;20073;-69
2021/08/02 06:53:19;;;;;;;7.70;2.67;;;;;;;25.13;37.63;100644.06;4418089;32;20086;-69
2021/08/02 06:55:47;;;;;;;8.25;3.35;;;;;;;25.07;37.32;100643.34;4418906;32;20056;-69
2021/08/02 06:58:14;;;;;;;3.67;2.03;;;;;;;25.28;37.08;100641.53;4422086;32;20095;-68
2021/08/02 07:00:40;;;;;;;8.60;2.80;;;;;;;25.00;37.01;100637.41;4422085;32;20463;-68
2021/08/02 07:03:06;;;;;;;5.43;2.55;;;;;;;25.19;36.90;100630.37;4419523;32;20045;-68
2021/08/02 07:05:32;;;;;;;13.20;2.85;;;;;;;24.75;37.63;100633.78;4421449;32;20099;-69
2021/08/02 07:07:57;;;;;;;9.85;2.58;;;;;;;24.91;37.15;100635.69;4418932;32;20485;-69
2021/08/02 07:10:23;;;;;;;7.82;2.28;;;;;;;25.04;37.09;100632.16;4418633;32;20091;-69
2021/08/02 07:12:49;;;;;;;8.30;2.87;;;;;;;24.99;37.33;100627.22;4421035;32;20033;-69
2021/08/02 07:15:15;;;;;;;6.80;2.28;;;;;;;25.00;37.44;100620.13;4421032;32;20423;-68
2021/08/02 07:17:40;;;;;;;10.10;2.97;;;;;;;25.14;37.00;100628.38;4418813;32;20131;-69
2021/08/02 07:20:07;;;;;;;8.60;2.60;;;;;;;25.29;36.94;100628.69;4418772;32;20489;-69
2021/08/02 07:22:33;;;;;;;6.05;2.20;;;;;;;25.32;36.82;100623.97;4421571;32;20073;-69
2021/08/02 07:25:00;;;;;;;7.80;2.95;;;;;;;25.35;36.97;100628.66;4421515;32;20480;-69
2021/08/02 07:27:25;;;;;;;8.32;2.12;;;;;;;24.91;37.70;100614.78;4418993;32;20084;-69
2021/08/02 07:29:51;;;;;;;12.48;1.80;;;;;;;24.99;37.61;100633.78;4418558;32;20494;-69
2021/08/02 07:32:17;;;;;;;7.85;1.62;;;;;;;24.70;37.62;100628.09;4422705;32;20041;-68
2021/08/02 07:34:43;;;;;;;5.87;1.70;;;;;;;24.35;38.49;100631.81;4416205;32;20058;-69
2021/08/02 07:37:09;;;;;;;7.10;1.48;;;;;;;24.33;38.21;100630.78;4420484;32;20109;-69
2021/08/02 07:39:35;;;;;;;10.25;1.67;;;;;;;24.48;38.07;100631.16;4417045;32;20065;-68
2021/08/02 07:42:03;;;;;;;7.60;2.35;;;;;;;24.58;37.88;100635.25;4421308;32;20068;-69
2021/08/02 07:44:29;;;;;;;6.55;1.80;;;;;;;24.63;37.86;100634.41;4420160;32;20396;-68
2021/08/02 07:46:55;;;;;;;9.65;2.25;;;;;;;25.08;37.00;100633.41;4420156;32;20619;-69
2021/08/02 07:49:21;;;;;;;5.68;1.67;;;;;;;25.26;36.74;100629.78;4417254;32;20074;-69
2021/08/02 07:51:46;;;;;;;10.35;1.87;;;;;;;25.37;36.25;100634.63;4418720;32;20041;-68
2021/08/02 07:54:12;;;;;;;8.07;2.15;;;;;;;25.38;36.61;100627.56;4417186;32;20385;-68
2021/08/02 07:56:39;;;;;;;8.93;2.33;;;;;;;25.61;35.78;100636.69;4418917;32;20390;-68
2021/08/02 07:59:05;;;;;;;6.62;1.58;;;;;;;25.70;35.90;100627.59;4420493;32;20030;-68
2021/08/02 08:01:31;;;;;;;5.53;1.60;;;;;;;25.68;35.83;100622.38;4420367;32;20431;-68
2021/08/02 08:03:57;;;;;;;7.80;1.45;;;;;;;25.74;35.71;100625.97;4420489;32;20056;-68
2021/08/02 08:06:22;;;;;;;9.57;1.50;;;;;;;26.01;35.26;100630.56;4412618;32;20066;-68
2021/08/02 08:08:48;;;;;;;5.43;1.70;;;;;;;26.06;34.98;100623.16;4418330;32;20074;-68
2021/08/02 08:11:14;;;;;;;7.35;1.48;;;;;;;25.86;35.13;100638.91;4416996;32;20061;-68
2021/08/02 08:13:39;;;;;;;7.12;1.40;;;;;;;25.91;35.22;100628.59;4420144;32;20083;-68
2021/08/02 08:16:06;;;;;;;4.72;1.50;;;;;;;25.87;35.67;100628.94;4422663;32;20068;-68
2021/08/02 08:18:32;;;;;;;9.88;1.60;;;;;;;25.78;35.69;100620.69;4420778;32;20107;-68
2021/08/02 08:20:59;;;;;;;10.20;1.92;;;;;;;26.21;35.31;100629.19;4421520;32;20134;-68
2021/08/02 08:23:27;;;;;;;6.43;1.70;;;;;;;26.21;35.27;100624.22;4424022;32;20086;-68
2021/08/02 08:25:53;;;;;;;6.80;1.48;;;;;;;26.55;34.79;100633.84;4424645;32;20599;-68
2021/08/02 08:28:19;;;;;;;4.47;1.67;;;;;;;26.73;34.25;100626.44;4422295;32;20050;-68
2021/08/02 08:30:44;;;;;;;3.62;1.40;;;;;;;26.53;34.76;100624.94;4419328;32;20123;-68
2021/08/02 08:33:10;;;;;;;7.55;1.65;;;;;;;26.75;34.28;100621.66;4426222;32;20455;-68
2021/08/02 08:35:37;;;;;;;11.23;1.33;;;;;;;26.98;33.57;100627.78;4424459;32;20146;-68
2021/08/02 08:38:05;;;;;;;7.93;1.55;;;;;;;27.10;33.43;100634.91;4421808;32;20457;-68
2021/08/02 08:40:32;;;;;;;4.97;1.67;;;;;;;27.45;33.29;100630.78;4419001;32;20041;-68
2021/08/02 08:42:58;;;;;;;9.65;2.05;;;;;;;27.65;32.80;100632.94;4419329;32;20546;-68
2021/08/02 08:45:25;;;;;;;8.35;1.75;;;;;;;27.67;32.15;100628.16;4421929;32;20099;-68
2021/08/02 08:47:51;;;;;;;7.57;1.95;;;;;;;27.61;32.43;100633.28;4421140;32;20061;-69
2021/08/02 08:50:18;;;;;;;8.73;2.00;;;;;;;28.06;31.89;100630.94;4421868;32;20082;-68
2021/08/02 08:52:45;;;;;;;7.55;1.55;;;;;;;28.22;31.49;100623.94;4424575;32;20084;-68
2021/08/02 08:55:13;;;;;;;7.20;1.33;;;;;;;28.06;31.78;100639.59;4419722;32;20452;-68
2021/08/02 08:57:41;;;;;;;5.60;1.85;;;;;;;28.49;31.21;100630.37;4421434;32;20060;-70
2021/08/02 09:00:19;;;;;;;7.53;2.08;;;;;;;28.56;31.34;100630.44;4424809;32;20369;-69
2021/08/02 09:02:45;;;;;;;8.13;1.85;;;;;;;28.95;30.58;100633.06;4421242;32;20354;-69
2021/08/02 09:05:10;;;;;;;9.52;1.40;;;;;;;28.96;30.54;100634.59;4421869;32;20087;-69
2021/08/02 09:07:39;;;;;;;10.52;2.05;;;;;;;28.90;30.58;100628.19;4422529;32;20687;-69
2021/08/02 09:10:08;;;;;;;7.80;1.73;;;;;;;29.17;30.14;100634.56;4418469;32;20045;-69
2021/08/02 09:12:35;;;;;;;6.32;1.55;;;;;;;29.43;29.90;100628.53;4421213;32;20518;-69
2021/08/02 09:15:05;;;;;;;7.22;2.20;;;;;;;29.59;29.25;100627.25;4423961;32;20046;-69
2021/08/02 09:17:36;;;;;;;3.28;1.25;;;;;;;29.91;29.02;100624.66;4420431;32;20094;-69
2021/08/02 09:20:16;;;;;;;3.28;1.55;;;;;;;29.68;29.34;100625.94;4418738;32;20088;-69
2021/08/02 09:22:42;;;;;;;8.13;1.95;;;;;;;29.52;29.62;100630.09;4420626;32;20141;-69
2021/08/02 09:25:16;;;;;;;5.43;1.75;;;;;;;29.74;29.16;100626.53;4419797;32;20049;-69
2021/08/02 09:27:43;;;;;;;3.67;1.30;;;;;;;30.34;28.00;100627.47;4415824;32;20410;-69
2021/08/02 09:30:26;;;;;;;10.02;2.37;;;;;;;30.45;28.57;100629.19;4417270;32;20085;-69
2021/08/02 09:38:08;;;;;;;8.07;2.15;;;;;;;31.57;27.59;100619.50;3981438;32;15034324;-68
2021/08/02 09:53:52;;;;;;;12.70;2.20;;;;;;;30.98;26.55;100620.47;3962724;32;15024029;-70
2021/08/02 09:56:19;;;;;;;5.72;2.40;;;;;;;30.98;26.55;100620.47;4413853;32;20034;-70
2021/08/02 09:58:46;;;;;;;8.50;1.33;;;;;;;30.59;26.87;100613.16;4413675;32;20085;-68
2021/08/02 10:01:14;;;;;;;5.65;2.15;;;;;;;30.71;25.61;100617.97;4415812;32;20053;-69
2021/08/02 10:03:40;;;;;;;6.35;1.58;;;;;;;30.77;25.78;100617.81;4416799;32;20398;-69
2021/08/02 10:06:06;;;;;;;5.87;1.87;;;;;;;30.26;26.92;100623.78;4420637;32;20057;-69
2021/08/02 10:08:33;;;;;;;4.50;1.80;;;;;;;30.77;26.72;100620.72;4416439;32;20123;-68
2021/08/02 10:10:59;;;;;;;6.53;1.83;;;;;;;31.21;25.29;100621.97;4414985;32;20031;-70
2021/08/02 10:13:27;;;;;;;4.10;1.50;;;;;;;31.03;26.35;100613.66;4412568;32;20852;-69
2021/08/02 10:15:56;;;;;;;10.00;1.67;;;;;;;31.12;25.77;100616.75;4416751;32;20033;-69
2021/08/02 10:18:25;;;;;;;3.92;1.55;;;;;;;31.06;25.35;100622.00;4419508;32;20077;-68
2021/08/02 10:21:03;;;;;;;5.03;1.33;;;;;;;30.46;26.44;100619.13;4416140;32;20052;-67
2021/08/02 10:23:28;;;;;;;4.70;1.50;;;;;;;30.02;26.69;100611.91;4413124;32;20057;-68
2021/08/02 10:25:54;;;;;;;8.10;1.75;;;;;;;30.29;25.26;100613.13;4415838;32;20879;-68
2021/08/02 10:28:20;;;;;;;4.78;1.40;;;;;;;30.27;26.93;100610.03;4412771;32;20041;-67
2021/08/02 10:30:48;;;;;;;3.47;1.52;;;;;;;30.47;25.98;100614.88;4417027;32;20056;-67
2021/08/02 10:33:14;;;;;;;10.93;1.80;;;;;;;31.25;24.48;100618.62;4415150;32;20045;-68
2021/08/02 10:35:45;;;;;;;8.15;1.60;;;;;;;31.06;26.06;100610.37;4416443;32;20149;-68
2021/08/02 10:38:14;;;;;;;4.65;1.52;;;;;;;31.64;25.79;100609.22;4412803;32;20089;-68
2021/08/02 10:40:49;;;;;;;4.68;1.55;;;;;;;31.36;22.79;100604.50;4415609;32;20430;-67
2021/08/02 10:49:16;;;;;;;2.60;1.40;;;;;;;32.67;22.71;100616.31;3995122;31;15020392;-69
2021/08/02 10:51:50;;;;;;;4.47;1.35;;;;;;;32.67;22.71;100616.31;4447689;32;20088;-69
2021/08/02 10:54:17;;;;;;;5.12;1.30;;;;;;;33.03;22.03;100596.91;4451428;32;20525;-69
2021/08/02 10:56:52;;;;;;;7.55;1.65;;;;;;;32.82;22.68;100601.59;4448755;32;20563;-68
2021/08/02 10:59:19;;;;;;;5.22;1.45;;;;;;;32.00;23.30;100609.63;4453636;32;20402;-69
2021/08/02 11:01:47;;;;;;;6.35;1.37;;;;;;;32.27;23.77;100602.63;4433016;32;20061;-69
2021/08/02 11:04:14;;;;;;;5.53;2.45;;;;;;;31.92;23.58;100598.03;4452766;32;20053;-69
2021/08/02 11:06:40;;;;;;;6.32;1.85;;;;;;;31.81;23.44;100601.38;4450941;32;20033;-69
2021/08/02 11:09:06;;;;;;;6.70;1.40;;;;;;;31.71;23.50;100603.34;4451409;32;20086;-69
2021/08/02 11:11:34;;;;;;;4.55;1.50;;;;;;;31.86;22.99;100603.31;4452739;32;20095;-68
2021/08/02 11:16:45;;;;;;;2.85;1.20;;;;;;;33.60;20.59;100605.38;3981617;32;15024191;-68
2021/08/02 11:19:24;;;;;;;3.55;1.25;;;;;;;33.60;20.59;100605.38;4435972;32;20471;-68
2021/08/02 11:24:36;;;;;;;2.47;1.12;;;;;;;34.66;20.09;100611.19;3981409;32;15024125;-70
2021/08/02 11:27:04;;;;;;;3.35;1.50;;;;;;;34.66;20.09;100611.19;4433742;32;20095;-69
2021/08/02 11:29:33;;;;;;;4.03;1.40;;;;;;;34.42;19.72;100604.19;4435695;32;20029;-68
2021/08/02 11:32:03;;;;;;;2.65;1.40;;;;;;;34.29;20.08;100615.47;4438039;32;20077;-68
2021/08/02 11:34:29;;;;;;;2.92;1.55;;;;;;;35.02;18.97;100613.28;4437838;32;20081;-68
2021/08/02 11:36:57;;;;;;;5.10;2.05;;;;;;;33.82;19.85;100615.97;4436375;32;20046;-68
2021/08/02 11:39:23;;;;;;;4.05;1.40;;;;;;;33.65;20.58;100616.78;4434902;32;20029;-68
2021/08/02 11:41:59;;;;;;;2.58;1.50;;;;;;;33.21;20.78;100615.19;4435088;32;20103;-68
2021/08/02 11:44:26;;;;;;;4.07;1.50;;;;;;;33.00;20.97;100609.78;4436112;32;20073;-69
2021/08/02 11:46:55;;;;;;;4.12;1.65;;;;;;;32.82;21.30;100607.41;4437267;32;20081;-69
2021/08/02 11:49:22;;;;;;;3.78;1.90;;;;;;;32.39;21.82;100612.47;4436588;32;20079;-69
2021/08/02 11:51:49;;;;;;;7.45;1.80;;;;;;;32.33;21.71;100608.19;4433850;32;20049;-69
2021/08/02 11:54:19;;;;;;;4.53;1.95;;;;;;;31.90;22.55;100611.62;4438570;32;20097;-69
2021/08/02 11:56:46;;;;;;;3.62;1.85;;;;;;;32.04;22.49;100602.03;4435014;32;20073;-69
2021/08/02 12:01:59;;;;;;;2.65;1.50;;;;;;;31.98;22.44;100610.22;3984564;32;15023375;-69
2021/08/02 12:04:26;;;;;;;3.28;1.52;;;;;;;32.27;21.98;100605.53;4435478;32;20045;-69
2021/08/02 12:06:55;;;;;;;8.60;1.70;;;;;;;32.69;21.86;100608.50;4429512;32;20049;-69
2021/08/02 12:09:37;;;;;;;6.87;2.40;;;;;;;32.84;22.38;100613.41;4432506;32;20045;-68
2021/08/02 12:12:06;;;;;;;5.65;1.95;;;;;;;33.02;22.59;100612.88;4430546;32;20045;-68
2021/08/02 12:14:33;;;;;;;6.30;2.28;;;;;;;33.05;23.38;100607.97;4432458;32;20053;-68
2021/08/02 12:19:47;;;;;;;4.62;2.20;;;;;;;32.00;24.67;100610.37;3981818;32;15026696;-68
2021/08/02 12:22:15;;;;;;;4.18;3.00;;;;;;;32.00;24.67;100610.37;4434913;32;20055;-68